sensor_id;sensor_type;location;lat;lon;timestamp;P1;durP1;ratioP1;P2;durP2;ratioP2
14167;SDS011;7163;50.626;12.922;2022-09-01T00:00:00;5.47;;;4.13;;
14167;SDS011;7163;50.626;12.922;2022-09-01T00:05:05;7.03;;;4.83;;
14167;SDS011;7163;50.626;12.922;2022-09-01T00:10:07;6.30;;;4.40;;
14167;SDS011;7163;50.626;12.922;2022-09-01T00:15:09;5.70;;;4.43;;
14167;SDS011;7163;50.626;12.922;2022-09-01T00:20:10;8.00;;;4.70;;
14167;SDS011;7163;50.626;12.922;2022-09-01T00:25:11;6.00;;;4.70;;
14167;SDS011;7163;50.626;12.922;2022-09-01T00:30:11;10.47;;;4.90;;
14167;SDS011;7163;50.626;12.922;2022-09-01T00:35:13;6.03;;;4.53;;
14167;SDS011;7163;50.626;12.922;2022-09-01T00:40:17;6.20;;;4.70;;
14167;SDS011;7163;50.626;12.922;2022-09-01T00:45:19;7.17;;;5.20;;
14167;SDS011;7163;50.626;12.922;2022-09-01T00:50:20;6.97;;;4.67;;
14167;SDS011;7163;50.626;12.922;2022-09-01T00:55:22;8.00;;;5.07;;
14167;SDS011;7163;50.626;12.922;2022-09-01T01:00:26;9.30;;;5.43;;
14167;SDS011;7163;50.626;12.922;2022-09-01T01:05:30;8.97;;;5.43;;
14167;SDS011;7163;50.626;12.922;2022-09-01T01:10:34;5.73;;;4.30;;
14167;SDS011;7163;50.626;12.922;2022-09-01T01:15:36;7.03;;;4.90;;
14167;SDS011;7163;50.626;12.922;2022-09-01T01:20:37;7.43;;;5.17;;
14167;SDS011;7163;50.626;12.922;2022-09-01T01:25:56;6.57;;;5.00;;
14167;SDS011;7163;50.626;12.922;2022-09-01T01:31:02;7.07;;;4.97;;
14167;SDS011;7163;50.626;12.922;2022-09-01T01:36:05;9.27;;;5.70;;
14167;SDS011;7163;50.626;12.922;2022-09-01T01:41:07;7.13;;;5.43;;
14167;SDS011;7163;50.626;12.922;2022-09-01T01:46:08;7.07;;;5.53;;
14167;SDS011;7163;50.626;12.922;2022-09-01T01:51:09;9.43;;;5.47;;
14167;SDS011;7163;50.626;12.922;2022-09-01T01:56:10;7.60;;;5.60;;
14167;SDS011;7163;50.626;12.922;2022-09-01T02:01:11;9.27;;;5.53;;
14167;SDS011;7163;50.626;12.922;2022-09-01T02:06:12;7.17;;;5.47;;
14167;SDS011;7163;50.626;12.922;2022-09-01T02:11:13;7.20;;;5.37;;
14167;SDS011;7163;50.626;12.922;2022-09-01T02:16:16;6.60;;;5.00;;
14167;SDS011;7163;50.626;12.922;2022-09-01T02:21:17;6.90;;;5.33;;
14167;SDS011;7163;50.626;12.922;2022-09-01T02:26:19;7.83;;;5.03;;
14167;SDS011;7163;50.626;12.922;2022-09-01T02:31:22;7.63;;;5.67;;
14167;SDS011;7163;50.626;12.922;2022-09-01T02:36:23;6.57;;;5.00;;
14167;SDS011;7163;50.626;12.922;2022-09-01T02:41:24;7.87;;;5.07;;
14167;SDS011;7163;50.626;12.922;2022-09-01T02:46:28;10.27;;;5.27;;
14167;SDS011;7163;50.626;12.922;2022-09-01T02:51:29;7.80;;;5.23;;
14167;SDS011;7163;50.626;12.922;2022-09-01T02:56:29;8.83;;;5.20;;
14167;SDS011;7163;50.626;12.922;2022-09-01T03:01:31;5.43;;;4.67;;
14167;SDS011;7163;50.626;12.922;2022-09-01T03:06:32;8.33;;;5.10;;
14167;SDS011;7163;50.626;12.922;2022-09-01T03:11:34;7.30;;;5.13;;
14167;SDS011;7163;50.626;12.922;2022-09-01T03:16:36;10.10;;;5.40;;
14167;SDS011;7163;50.626;12.922;2022-09-01T03:21:38;6.70;;;5.00;;
14167;SDS011;7163;50.626;12.922;2022-09-01T03:26:40;7.57;;;5.40;;
14167;SDS011;7163;50.626;12.922;2022-09-01T03:31:41;7.07;;;5.57;;
14167;SDS011;7163;50.626;12.922;2022-09-01T03:36:42;8.47;;;5.80;;
14167;SDS011;7163;50.626;12.922;2022-09-01T03:41:49;6.27;;;5.50;;
14167;SDS011;7163;50.626;12.922;2022-09-01T03:46:49;6.90;;;5.37;;
14167;SDS011;7163;50.626;12.922;2022-09-01T03:51:51;6.77;;;5.40;;
14167;SDS011;7163;50.626;12.922;2022-09-01T03:56:54;8.13;;;5.27;;
14167;SDS011;7163;50.626;12.922;2022-09-01T04:01:57;6.93;;;5.40;;
14167;SDS011;7163;50.626;12.922;2022-09-01T04:06:59;6.50;;;4.87;;
14167;SDS011;7163;50.626;12.922;2022-09-01T04:11:59;7.77;;;4.97;;
14167;SDS011;7163;50.626;12.922;2022-09-01T04:16:59;7.60;;;5.27;;
14167;SDS011;7163;50.626;12.922;2022-09-01T04:22:18;6.53;;;5.70;;
14167;SDS011;7163;50.626;12.922;2022-09-01T04:27:19;8.60;;;7.10;;
14167;SDS011;7163;50.626;12.922;2022-09-01T04:32:23;8.40;;;6.83;;
14167;SDS011;7163;50.626;12.922;2022-09-01T04:37:24;9.87;;;6.33;;
14167;SDS011;7163;50.626;12.922;2022-09-01T04:42:26;13.57;;;10.63;;
14167;SDS011;7163;50.626;12.922;2022-09-01T04:47:28;10.20;;;7.37;;
14167;SDS011;7163;50.626;12.922;2022-09-01T04:52:31;13.67;;;7.43;;
14167;SDS011;7163;50.626;12.922;2022-09-01T04:57:31;18.73;;;12.53;;
14167;SDS011;7163;50.626;12.922;2022-09-01T05:02:31;11.40;;;7.83;;
14167;SDS011;7163;50.626;12.922;2022-09-01T05:07:32;10.63;;;7.17;;
14167;SDS011;7163;50.626;12.922;2022-09-01T05:12:33;9.27;;;6.67;;
14167;SDS011;7163;50.626;12.922;2022-09-01T05:17:35;8.80;;;6.33;;
14167;SDS011;7163;50.626;12.922;2022-09-01T05:22:37;14.07;;;7.73;;
14167;SDS011;7163;50.626;12.922;2022-09-01T05:27:40;11.20;;;8.73;;
14167;SDS011;7163;50.626;12.922;2022-09-01T05:32:41;14.40;;;8.70;;
14167;SDS011;7163;50.626;12.922;2022-09-01T05:37:42;8.00;;;5.50;;
14167;SDS011;7163;50.626;12.922;2022-09-01T05:42:43;9.20;;;5.97;;
14167;SDS011;7163;50.626;12.922;2022-09-01T05:47:43;11.20;;;7.60;;
14167;SDS011;7163;50.626;12.922;2022-09-01T05:52:45;10.07;;;6.50;;
14167;SDS011;7163;50.626;12.922;2022-09-01T05:57:46;15.17;;;10.77;;
14167;SDS011;7163;50.626;12.922;2022-09-01T06:02:48;34.37;;;20.53;;
14167;SDS011;7163;50.626;12.922;2022-09-01T06:07:48;33.60;;;21.07;;
14167;SDS011;7163;50.626;12.922;2022-09-01T06:12:50;35.23;;;20.43;;
14167;SDS011;7163;50.626;12.922;2022-09-01T06:17:52;20.07;;;13.73;;
14167;SDS011;7163;50.626;12.922;2022-09-01T06:22:53;19.40;;;13.07;;
14167;SDS011;7163;50.626;12.922;2022-09-01T06:27:54;10.60;;;6.37;;
14167;SDS011;7163;50.626;12.922;2022-09-01T06:32:54;10.93;;;6.93;;
14167;SDS011;7163;50.626;12.922;2022-09-01T06:37:56;15.33;;;9.70;;
14167;SDS011;7163;50.626;12.922;2022-09-01T06:42:57;15.60;;;8.87;;
14167;SDS011;7163;50.626;12.922;2022-09-01T06:47:59;13.97;;;7.83;;
14167;SDS011;7163;50.626;12.922;2022-09-01T06:53:00;12.17;;;7.87;;
14167;SDS011;7163;50.626;12.922;2022-09-01T06:58:09;12.23;;;7.07;;
14167;SDS011;7163;50.626;12.922;2022-09-01T07:03:12;9.00;;;6.00;;
14167;SDS011;7163;50.626;12.922;2022-09-01T07:08:14;7.73;;;4.83;;
14167;SDS011;7163;50.626;12.922;2022-09-01T07:13:21;7.77;;;4.63;;
14167;SDS011;7163;50.626;12.922;2022-09-01T07:18:24;8.87;;;3.77;;
14167;SDS011;7163;50.626;12.922;2022-09-01T07:23:25;6.60;;;3.43;;
14167;SDS011;7163;50.626;12.922;2022-09-01T07:28:27;6.63;;;3.50;;
14167;SDS011;7163;50.626;12.922;2022-09-01T07:33:29;5.73;;;2.90;;
14167;SDS011;7163;50.626;12.922;2022-09-01T07:38:30;4.57;;;2.60;;
14167;SDS011;7163;50.626;12.922;2022-09-01T07:43:31;6.60;;;2.90;;
14167;SDS011;7163;50.626;12.922;2022-09-01T07:48:33;4.20;;;2.10;;
14167;SDS011;7163;50.626;12.922;2022-09-01T07:53:33;6.70;;;2.40;;
14167;SDS011;7163;50.626;12.922;2022-09-01T07:58:36;4.75;;;2.40;;
14167;SDS011;7163;50.626;12.922;2022-09-01T08:03:37;3.40;;;1.77;;
14167;SDS011;7163;50.626;12.922;2022-09-01T08:08:39;4.50;;;2.30;;
14167;SDS011;7163;50.626;12.922;2022-09-01T08:13:40;5.95;;;1.80;;
14167;SDS011;7163;50.626;12.922;2022-09-01T08:18:41;5.32;;;1.83;;
14167;SDS011;7163;50.626;12.922;2022-09-01T08:23:42;4.03;;;2.05;;
14167;SDS011;7163;50.626;12.922;2022-09-01T08:28:42;2.88;;;1.70;;
14167;SDS011;7163;50.626;12.922;2022-09-01T08:33:44;4.97;;;1.70;;
14167;SDS011;7163;50.626;12.922;2022-09-01T08:38:46;4.65;;;1.80;;
14167;SDS011;7163;50.626;12.922;2022-09-01T08:49:00;4.20;;;1.40;;
14167;SDS011;7163;50.626;12.922;2022-09-01T08:54:13;2.25;;;1.40;;
14167;SDS011;7163;50.626;12.922;2022-09-01T08:59:18;1.50;;;1.33;;
14167;SDS011;7163;50.626;12.922;2022-09-01T09:15:16;2.10;;;1.42;;
14167;SDS011;7163;50.626;12.922;2022-09-01T09:20:26;4.10;;;1.30;;
14167;SDS011;7163;50.626;12.922;2022-09-01T09:25:27;2.13;;;1.40;;
14167;SDS011;7163;50.626;12.922;2022-09-01T09:30:30;3.38;;;1.38;;
14167;SDS011;7163;50.626;12.922;2022-09-01T09:35:33;2.83;;;1.38;;
14167;SDS011;7163;50.626;12.922;2022-09-01T09:40:35;2.28;;;1.20;;
14167;SDS011;7163;50.626;12.922;2022-09-01T09:45:37;2.17;;;1.48;;
14167;SDS011;7163;50.626;12.922;2022-09-01T09:50:39;2.75;;;1.73;;
14167;SDS011;7163;50.626;12.922;2022-09-01T09:55:49;2.28;;;1.80;;
14167;SDS011;7163;50.626;12.922;2022-09-01T10:01:04;1.67;;;1.33;;
14167;SDS011;7163;50.626;12.922;2022-09-01T10:06:28;2.38;;;1.40;;
14167;SDS011;7163;50.626;12.922;2022-09-01T10:11:44;3.53;;;1.75;;
14167;SDS011;7163;50.626;12.922;2022-09-01T10:16:51;2.65;;;1.40;;
14167;SDS011;7163;50.626;12.922;2022-09-01T10:21:56;3.10;;;1.40;;
14167;SDS011;7163;50.626;12.922;2022-09-01T10:26:58;3.60;;;1.75;;
14167;SDS011;7163;50.626;12.922;2022-09-01T10:31:59;4.07;;;1.20;;
14167;SDS011;7163;50.626;12.922;2022-09-01T10:37:02;2.67;;;1.40;;
14167;SDS011;7163;50.626;12.922;2022-09-01T10:42:04;1.55;;;1.40;;
14167;SDS011;7163;50.626;12.922;2022-09-01T10:57:42;5.45;;;1.77;;
14167;SDS011;7163;50.626;12.922;2022-09-01T11:13:30;4.68;;;1.58;;
14167;SDS011;7163;50.626;12.922;2022-09-01T11:18:35;2.60;;;1.60;;
14167;SDS011;7163;50.626;12.922;2022-09-01T11:23:36;2.25;;;1.40;;
14167;SDS011;7163;50.626;12.922;2022-09-01T11:28:38;2.95;;;1.67;;
14167;SDS011;7163;50.626;12.922;2022-09-01T11:33:58;1.77;;;1.33;;
14167;SDS011;7163;50.626;12.922;2022-09-01T11:39:07;3.55;;;1.63;;
14167;SDS011;7163;50.626;12.922;2022-09-01T11:49:50;3.92;;;1.73;;
14167;SDS011;7163;50.626;12.922;2022-09-01T11:54:53;4.78;;;1.67;;
14167;SDS011;7163;50.626;12.922;2022-09-01T11:59:54;3.13;;;1.80;;
14167;SDS011;7163;50.626;12.922;2022-09-01T12:04:56;3.13;;;1.83;;
14167;SDS011;7163;50.626;12.922;2022-09-01T12:09:56;3.40;;;1.48;;
14167;SDS011;7163;50.626;12.922;2022-09-01T12:15:30;1.77;;;1.33;;
14167;SDS011;7163;50.626;12.922;2022-09-01T12:20:26;3.20;;;1.60;;
14167;SDS011;7163;50.626;12.922;2022-09-01T12:25:32;2.22;;;1.30;;
14167;SDS011;7163;50.626;12.922;2022-09-01T12:30:33;5.78;;;1.65;;
14167;SDS011;7163;50.626;12.922;2022-09-01T12:35:34;4.25;;;1.70;;
14167;SDS011;7163;50.626;12.922;2022-09-01T12:40:34;5.40;;;1.67;;
14167;SDS011;7163;50.626;12.922;2022-09-01T12:45:45;4.10;;;1.83;;
14167;SDS011;7163;50.626;12.922;2022-09-01T12:50:46;3.03;;;1.63;;
14167;SDS011;7163;50.626;12.922;2022-09-01T12:55:54;2.40;;;1.60;;
14167;SDS011;7163;50.626;12.922;2022-09-01T13:01:00;1.90;;;1.25;;
14167;SDS011;7163;50.626;12.922;2022-09-01T13:06:02;2.55;;;1.77;;
14167;SDS011;7163;50.626;12.922;2022-09-01T13:11:07;6.07;;;1.67;;
14167;SDS011;7163;50.626;12.922;2022-09-01T13:16:09;2.22;;;1.27;;
14167;SDS011;7163;50.626;12.922;2022-09-01T13:21:11;3.30;;;1.50;;
14167;SDS011;7163;50.626;12.922;2022-09-01T13:26:12;4.65;;;1.60;;
14167;SDS011;7163;50.626;12.922;2022-09-01T13:31:12;3.28;;;1.50;;
14167;SDS011;7163;50.626;12.922;2022-09-01T13:36:13;4.63;;;1.40;;
14167;SDS011;7163;50.626;12.922;2022-09-01T13:41:14;2.42;;;1.27;;
14167;SDS011;7163;50.626;12.922;2022-09-01T13:46:17;3.50;;;1.40;;
14167;SDS011;7163;50.626;12.922;2022-09-01T13:51:24;2.63;;;1.75;;
14167;SDS011;7163;50.626;12.922;2022-09-01T13:56:26;2.25;;;1.15;;
14167;SDS011;7163;50.626;12.922;2022-09-01T14:01:26;1.23;;;1.10;;
14167;SDS011;7163;50.626;12.922;2022-09-01T14:06:28;4.03;;;1.60;;
14167;SDS011;7163;50.626;12.922;2022-09-01T14:11:28;3.38;;;1.70;;
14167;SDS011;7163;50.626;12.922;2022-09-01T14:16:31;2.70;;;1.40;;
14167;SDS011;7163;50.626;12.922;2022-09-01T14:21:31;3.38;;;1.90;;
14167;SDS011;7163;50.626;12.922;2022-09-01T14:26:32;4.60;;;1.50;;
14167;SDS011;7163;50.626;12.922;2022-09-01T14:31:32;2.20;;;1.38;;
14167;SDS011;7163;50.626;12.922;2022-09-01T14:36:35;1.92;;;1.45;;
14167;SDS011;7163;50.626;12.922;2022-09-01T14:41:35;3.23;;;1.60;;
14167;SDS011;7163;50.626;12.922;2022-09-01T14:46:35;2.38;;;1.38;;
14167;SDS011;7163;50.626;12.922;2022-09-01T14:51:36;7.97;;;1.40;;
14167;SDS011;7163;50.626;12.922;2022-09-01T14:56:37;3.13;;;1.30;;
14167;SDS011;7163;50.626;12.922;2022-09-01T15:01:37;3.77;;;1.40;;
14167;SDS011;7163;50.626;12.922;2022-09-01T15:06:38;2.87;;;1.30;;
14167;SDS011;7163;50.626;12.922;2022-09-01T15:11:39;7.50;;;3.80;;
14167;SDS011;7163;50.626;12.922;2022-09-01T15:16:40;3.78;;;2.80;;
14167;SDS011;7163;50.626;12.922;2022-09-01T15:21:41;3.28;;;1.80;;
14167;SDS011;7163;50.626;12.922;2022-09-01T15:26:43;3.35;;;1.58;;
14167;SDS011;7163;50.626;12.922;2022-09-01T15:31:46;1.58;;;1.42;;
14167;SDS011;7163;50.626;12.922;2022-09-01T15:36:46;2.83;;;1.70;;
14167;SDS011;7163;50.626;12.922;2022-09-01T15:41:47;1.40;;;1.30;;
14167;SDS011;7163;50.626;12.922;2022-09-01T15:46:47;1.95;;;1.30;;
14167;SDS011;7163;50.626;12.922;2022-09-01T15:51:47;2.67;;;1.53;;
14167;SDS011;7163;50.626;12.922;2022-09-01T15:56:48;3.00;;;1.55;;
14167;SDS011;7163;50.626;12.922;2022-09-01T16:01:48;2.67;;;1.80;;
14167;SDS011;7163;50.626;12.922;2022-09-01T16:06:51;2.03;;;1.50;;
14167;SDS011;7163;50.626;12.922;2022-09-01T16:11:52;3.17;;;1.38;;
14167;SDS011;7163;50.626;12.922;2022-09-01T16:16:54;2.58;;;1.52;;
14167;SDS011;7163;50.626;12.922;2022-09-01T16:27:14;3.65;;;2.53;;
14167;SDS011;7163;50.626;12.922;2022-09-01T16:32:16;3.65;;;1.50;;
14167;SDS011;7163;50.626;12.922;2022-09-01T16:37:22;3.50;;;1.50;;
14167;SDS011;7163;50.626;12.922;2022-09-01T16:43:05;1.52;;;1.38;;
14167;SDS011;7163;50.626;12.922;2022-09-01T16:48:18;1.55;;;1.40;;
14167;SDS011;7163;50.626;12.922;2022-09-01T16:58:38;4.47;;;2.60;;
14167;SDS011;7163;50.626;12.922;2022-09-01T17:04:04;2.42;;;1.77;;
14167;SDS011;7163;50.626;12.922;2022-09-01T17:09:34;5.43;;;2.30;;
14167;SDS011;7163;50.626;12.922;2022-09-01T17:14:47;4.20;;;2.03;;
14167;SDS011;7163;50.626;12.922;2022-09-01T17:19:53;3.55;;;2.30;;
14167;SDS011;7163;50.626;12.922;2022-09-01T17:24:56;7.25;;;2.60;;
14167;SDS011;7163;50.626;12.922;2022-09-01T17:30:09;4.30;;;2.60;;
14167;SDS011;7163;50.626;12.922;2022-09-01T17:40:41;4.28;;;2.30;;
14167;SDS011;7163;50.626;12.922;2022-09-01T18:07:02;4.63;;;2.60;;
14167;SDS011;7163;50.626;12.922;2022-09-01T18:12:17;2.80;;;1.90;;
14167;SDS011;7163;50.626;12.922;2022-09-01T18:17:28;3.13;;;1.93;;
14167;SDS011;7163;50.626;12.922;2022-09-01T18:22:35;3.43;;;2.00;;
14167;SDS011;7163;50.626;12.922;2022-09-01T18:28:00;2.90;;;1.90;;
14167;SDS011;7163;50.626;12.922;2022-09-01T18:38:31;7.10;;;2.00;;
14167;SDS011;7163;50.626;12.922;2022-09-01T18:43:44;5.00;;;2.80;;
14167;SDS011;7163;50.626;12.922;2022-09-01T18:48:54;4.30;;;2.23;;
14167;SDS011;7163;50.626;12.922;2022-09-01T18:54:06;3.83;;;2.03;;
14167;SDS011;7163;50.626;12.922;2022-09-01T19:04:32;6.50;;;3.33;;
14167;SDS011;7163;50.626;12.922;2022-09-01T19:09:42;7.37;;;3.20;;
14167;SDS011;7163;50.626;12.922;2022-09-01T19:14:48;6.20;;;3.40;;
14167;SDS011;7163;50.626;12.922;2022-09-01T19:19:53;4.80;;;3.40;;
14167;SDS011;7163;50.626;12.922;2022-09-01T19:24:58;6.90;;;4.50;;
14167;SDS011;7163;50.626;12.922;2022-09-01T19:30:22;7.97;;;3.57;;
14167;SDS011;7163;50.626;12.922;2022-09-01T19:35:23;10.00;;;5.47;;
14167;SDS011;7163;50.626;12.922;2022-09-01T19:40:27;5.27;;;3.60;;
14167;SDS011;7163;50.626;12.922;2022-09-01T19:50:56;6.43;;;3.10;;
14167;SDS011;7163;50.626;12.922;2022-09-01T19:56:08;3.20;;;2.73;;
14167;SDS011;7163;50.626;12.922;2022-09-01T20:01:13;4.80;;;2.90;;
14167;SDS011;7163;50.626;12.922;2022-09-01T20:06:17;15.50;;;6.20;;
14167;SDS011;7163;50.626;12.922;2022-09-01T20:21:44;8.40;;;4.73;;
14167;SDS011;7163;50.626;12.922;2022-09-01T20:26:48;12.70;;;6.60;;
14167;SDS011;7163;50.626;12.922;2022-09-01T20:32:03;5.20;;;3.73;;
14167;SDS011;7163;50.626;12.922;2022-09-01T20:42:32;14.47;;;8.43;;
14167;SDS011;7163;50.626;12.922;2022-09-01T20:47:46;13.90;;;5.53;;
14167;SDS011;7163;50.626;12.922;2022-09-01T20:53:01;11.73;;;6.70;;
14167;SDS011;7163;50.626;12.922;2022-09-01T20:58:07;6.53;;;3.60;;
14167;SDS011;7163;50.626;12.922;2022-09-01T21:03:17;6.30;;;3.67;;
14167;SDS011;7163;50.626;12.922;2022-09-01T21:19:14;4.40;;;3.30;;
14167;SDS011;7163;50.626;12.922;2022-09-01T21:24:25;4.47;;;3.60;;
14167;SDS011;7163;50.626;12.922;2022-09-01T21:29:29;6.57;;;3.57;;
14167;SDS011;7163;50.626;12.922;2022-09-01T21:34:36;3.73;;;3.27;;
14167;SDS011;7163;50.626;12.922;2022-09-01T21:39:36;5.20;;;3.50;;
14167;SDS011;7163;50.626;12.922;2022-09-01T21:44:37;3.30;;;2.80;;
14167;SDS011;7163;50.626;12.922;2022-09-01T21:49:38;5.60;;;3.53;;
14167;SDS011;7163;50.626;12.922;2022-09-01T21:54:38;6.67;;;3.87;;
14167;SDS011;7163;50.626;12.922;2022-09-01T21:59:38;4.77;;;3.30;;
14167;SDS011;7163;50.626;12.922;2022-09-01T22:04:39;5.13;;;3.67;;
14167;SDS011;7163;50.626;12.922;2022-09-01T22:09:40;6.77;;;3.87;;
14167;SDS011;7163;50.626;12.922;2022-09-01T22:14:42;5.07;;;3.50;;
14167;SDS011;7163;50.626;12.922;2022-09-01T22:19:42;5.40;;;3.83;;
14167;SDS011;7163;50.626;12.922;2022-09-01T22:24:42;6.40;;;3.77;;
14167;SDS011;7163;50.626;12.922;2022-09-01T22:29:43;5.57;;;3.03;;
14167;SDS011;7163;50.626;12.922;2022-09-01T22:34:43;4.43;;;3.40;;
14167;SDS011;7163;50.626;12.922;2022-09-01T22:39:44;7.17;;;3.37;;
14167;SDS011;7163;50.626;12.922;2022-09-01T22:44:44;4.87;;;3.60;;
14167;SDS011;7163;50.626;12.922;2022-09-01T22:49:45;4.17;;;3.40;;
14167;SDS011;7163;50.626;12.922;2022-09-01T22:54:45;4.07;;;3.20;;
14167;SDS011;7163;50.626;12.922;2022-09-01T22:59:46;6.70;;;3.87;;
14167;SDS011;7163;50.626;12.922;2022-09-01T23:04:46;5.50;;;3.90;;
14167;SDS011;7163;50.626;12.922;2022-09-01T23:09:47;6.07;;;3.60;;
14167;SDS011;7163;50.626;12.922;2022-09-01T23:14:48;5.03;;;3.30;;
14167;SDS011;7163;50.626;12.922;2022-09-01T23:19:48;4.93;;;3.70;;
14167;SDS011;7163;50.626;12.922;2022-09-01T23:24:49;4.60;;;3.43;;
14167;SDS011;7163;50.626;12.922;2022-09-01T23:29:49;5.63;;;3.80;;
14167;SDS011;7163;50.626;12.922;2022-09-01T23:34:50;5.50;;;3.90;;
14167;SDS011;7163;50.626;12.922;2022-09-01T23:39:51;4.20;;;3.30;;
14167;SDS011;7163;50.626;12.922;2022-09-01T23:44:51;3.93;;;3.00;;
14167;SDS011;7163;50.626;12.922;2022-09-01T23:49:52;3.33;;;3.00;;
14167;SDS011;7163;50.626;12.922;2022-09-01T23:54:52;3.57;;;3.10;;
14167;SDS011;7163;50.626;12.922;2022-09-01T23:59:56;4.30;;;3.37;;
